createdAt,value
2023-04-20T00:00:55.573Z,35.81
2023-04-20T00:01:55.636Z,35.79
2023-04-20T00:02:55.799Z,35.78
2023-04-20T00:03:56.074Z,35.77
2023-04-20T00:04:55.745Z,35.77
2023-04-20T00:05:55.809Z,35.75
2023-04-20T00:06:55.836Z,35.72
2023-04-20T00:07:55.851Z,35.70
2023-04-20T00:08:55.921Z,35.72
2023-04-20T00:09:55.942Z,35.74
2023-04-20T00:10:55.975Z,35.69
2023-04-20T00:11:56.036Z,35.69
2023-04-20T00:12:56.099Z,35.72
2023-04-20T00:13:56.120Z,35.71
2023-04-20T00:14:56.142Z,35.69
2023-04-20T00:15:56.200Z,35.67
2023-04-20T00:16:56.208Z,35.69
2023-04-20T00:17:56.285Z,35.70
2023-04-20T00:18:56.346Z,35.72
2023-04-20T00:19:56.330Z,35.68
2023-04-20T00:20:56.397Z,35.73
2023-04-20T00:21:56.395Z,35.65
2023-04-20T00:22:56.434Z,35.63
2023-04-20T00:23:56.530Z,35.67
2023-04-20T00:24:56.532Z,35.68
2023-04-20T00:25:56.600Z,35.68
2023-04-20T00:26:56.638Z,35.64
2023-04-20T00:27:56.686Z,35.66
2023-04-20T00:28:56.712Z,35.65
2023-04-20T00:29:56.781Z,35.67
2023-04-20T00:30:56.848Z,35.64
2023-04-20T00:31:56.916Z,35.64
2023-04-20T00:32:57.057Z,35.64
2023-04-20T00:33:57.006Z,35.64
2023-04-20T00:34:57.045Z,35.60
2023-04-20T00:35:57.038Z,35.64
2023-04-20T00:36:57.085Z,35.61
2023-04-20T00:37:57.146Z,35.56
2023-04-20T00:38:57.430Z,35.58
2023-04-20T00:39:57.195Z,35.57
2023-04-20T00:40:57.267Z,35.59
2023-04-20T00:41:57.271Z,35.59
2023-04-20T00:42:57.314Z,35.58
2023-04-20T00:43:57.422Z,35.58
2023-04-20T00:44:57.392Z,35.55
2023-04-20T00:45:57.455Z,35.57
2023-04-20T00:46:57.492Z,35.55
2023-04-20T00:47:57.621Z,35.51
2023-04-20T00:48:57.568Z,35.53
2023-04-20T00:49:57.646Z,35.57
2023-04-20T00:50:57.712Z,35.54
2023-04-20T00:51:57.741Z,35.51
2023-04-20T00:52:57.796Z,35.51
2023-04-20T00:53:57.861Z,35.49
2023-04-20T00:54:57.899Z,35.50
2023-04-20T00:55:57.939Z,35.49
2023-04-20T00:56:58.001Z,35.51
2023-04-20T00:57:58.102Z,35.45
2023-04-20T00:58:58.014Z,35.44
2023-04-20T00:59:58.078Z,35.44
2023-04-20T01:00:58.103Z,35.40
2023-04-20T01:01:58.288Z,35.42
2023-04-20T01:02:58.223Z,35.36
2023-04-20T01:03:58.328Z,35.38
2023-04-20T01:04:58.181Z,35.40
2023-04-20T01:05:58.163Z,35.36
2023-04-20T01:06:58.201Z,35.38
2023-04-20T01:07:58.207Z,35.35
2023-04-20T01:08:58.249Z,35.36
2023-04-20T01:09:58.230Z,35.38
2023-04-20T01:10:58.234Z,35.39
2023-04-20T01:11:58.258Z,35.33
2023-04-20T01:12:58.282Z,35.33
2023-04-20T01:13:58.439Z,35.34
2023-04-20T01:14:58.311Z,35.33
2023-04-20T01:15:58.371Z,35.30
2023-04-20T01:16:58.358Z,35.34
2023-04-20T01:17:58.477Z,35.34
2023-04-20T01:18:58.446Z,35.37
2023-04-20T01:19:58.444Z,35.35
2023-04-20T01:20:58.488Z,35.33
2023-04-20T01:21:58.542Z,35.33
2023-04-20T01:22:58.547Z,35.33
2023-04-20T01:23:58.591Z,35.28
2023-04-20T01:24:58.597Z,35.29
2023-04-20T01:25:58.682Z,35.34
2023-04-20T01:26:58.699Z,35.33
2023-04-20T01:27:58.706Z,35.29
2023-04-20T01:28:58.784Z,35.28
2023-04-20T01:29:58.841Z,35.28
2023-04-20T01:30:58.867Z,35.33
2023-04-20T01:31:58.953Z,35.33
2023-04-20T01:32:58.986Z,35.28
2023-04-20T01:33:59.022Z,35.28
2023-04-20T01:34:59.019Z,35.29
2023-04-20T01:35:59.071Z,35.34
2023-04-20T01:36:59.127Z,35.24
2023-04-20T01:37:59.163Z,35.30
2023-04-20T01:38:59.212Z,35.23
2023-04-20T01:39:59.276Z,35.25
2023-04-20T01:40:59.263Z,35.24
2023-04-20T01:41:59.326Z,35.23
2023-04-20T01:42:59.342Z,35.22
2023-04-20T01:43:59.421Z,35.25
2023-04-20T01:44:59.438Z,35.21
2023-04-20T01:45:59.500Z,35.27
2023-04-20T01:46:59.621Z,35.23
2023-04-20T01:47:59.612Z,35.27
2023-04-20T01:48:59.658Z,35.25
2023-04-20T01:49:59.635Z,35.24
2023-04-20T01:50:59.663Z,35.25
2023-04-20T01:51:59.718Z,35.27
2023-04-20T01:52:59.771Z,35.24
2023-04-20T01:53:59.834Z,35.24
2023-04-20T01:54:59.842Z,35.20
2023-04-20T01:55:59.876Z,35.25
2023-04-20T01:56:59.913Z,35.23
2023-04-20T01:57:59.964Z,35.19
2023-04-20T01:59:00.011Z,35.16
2023-04-20T02:00:00.052Z,35.20
2023-04-20T02:01:00.123Z,35.16
2023-04-20T02:02:00.174Z,35.14
2023-04-20T02:03:00.248Z,35.15
2023-04-20T02:04:00.345Z,35.18
2023-04-20T02:05:00.269Z,35.18
2023-04-20T02:06:00.273Z,35.20
2023-04-20T02:07:00.307Z,35.18
2023-04-20T02:08:00.352Z,35.22
2023-04-20T02:09:00.389Z,35.15
2023-04-20T02:10:00.441Z,35.14
2023-04-20T02:11:00.497Z,35.17
2023-04-20T02:12:00.550Z,35.13
2023-04-20T02:13:00.556Z,35.13
2023-04-20T02:14:00.579Z,35.12
2023-04-20T02:15:00.604Z,35.09
2023-04-20T02:16:00.677Z,35.11
2023-04-20T02:17:00.718Z,35.10
2023-04-20T02:18:00.747Z,35.09
2023-04-20T02:19:00.762Z,35.14
2023-04-20T02:20:00.815Z,35.12
2023-04-20T02:21:00.838Z,35.11
2023-04-20T02:22:00.887Z,35.12
2023-04-20T02:23:00.900Z,35.09
2023-04-20T02:24:00.970Z,35.10
2023-04-20T02:25:01.002Z,35.04
2023-04-20T02:26:01.021Z,35.05
2023-04-20T02:27:01.093Z,35.06
2023-04-20T02:28:01.106Z,35.00
2023-04-20T02:29:01.130Z,35.04
2023-04-20T02:30:01.180Z,35.05
2023-04-20T02:31:01.238Z,35.01
2023-04-20T02:32:01.286Z,35.05
2023-04-20T02:33:01.321Z,35.05
2023-04-20T02:34:01.314Z,35.03
2023-04-20T02:35:01.334Z,35.04
2023-04-20T02:36:01.370Z,35.01
2023-04-20T02:37:01.413Z,35.03
2023-04-20T02:38:01.437Z,35.03
2023-04-20T02:39:01.516Z,35.00
2023-04-20T02:40:01.533Z,35.07
2023-04-20T02:41:01.576Z,35.00
2023-04-20T02:42:01.641Z,35.00
2023-04-20T02:43:01.634Z,35.03
2023-04-20T02:44:01.663Z,35.03
2023-04-20T02:45:01.734Z,34.97
2023-04-20T02:46:01.785Z,34.99
2023-04-20T02:47:01.773Z,35.00
2023-04-20T02:48:01.843Z,35.01
2023-04-20T02:49:01.866Z,34.97
2023-04-20T02:50:01.898Z,35.00
2023-04-20T02:51:01.931Z,34.94
2023-04-20T02:52:01.952Z,34.98
2023-04-20T02:53:02.006Z,35.03
2023-04-20T02:54:02.524Z,35.01
2023-04-20T02:55:02.078Z,34.99
2023-04-20T02:56:02.087Z,34.97
2023-04-20T02:57:02.156Z,35.03
2023-04-20T02:58:02.172Z,34.99
2023-04-20T02:59:02.199Z,35.01
2023-04-20T03:00:02.232Z,35.00
2023-04-20T03:01:02.242Z,35.01
2023-04-20T03:02:02.407Z,34.97
2023-04-20T03:03:02.454Z,34.99
2023-04-20T03:04:02.458Z,35.02
2023-04-20T03:05:02.408Z,34.97
2023-04-20T03:06:02.425Z,34.95
2023-04-20T03:07:02.443Z,35.00
2023-04-20T03:08:02.478Z,35.01
2023-04-20T03:09:02.553Z,34.95
2023-04-20T03:10:02.563Z,34.94
2023-04-20T03:11:02.580Z,34.94
2023-04-20T03:12:02.614Z,34.94
2023-04-20T03:13:02.658Z,34.95
2023-04-20T03:14:02.688Z,34.95
2023-04-20T03:15:02.695Z,34.91
2023-04-20T03:16:02.798Z,34.96
2023-04-20T03:17:02.798Z,34.94
2023-04-20T03:18:02.822Z,34.96
2023-04-20T03:19:02.870Z,34.91
2023-04-20T03:20:02.879Z,34.91
2023-04-20T03:21:02.908Z,34.99
2023-04-20T03:22:02.940Z,34.94
2023-04-20T03:23:02.913Z,34.92
2023-04-20T03:24:02.956Z,34.90
2023-04-20T03:25:02.963Z,34.90
2023-04-20T03:26:03.011Z,34.86
2023-04-20T03:27:03.048Z,34.89
2023-04-20T03:28:03.058Z,34.95
2023-04-20T03:29:03.075Z,34.86
2023-04-20T03:30:03.108Z,34.91
2023-04-20T03:31:03.134Z,34.90
2023-04-20T03:32:03.224Z,34.88
2023-04-20T03:33:03.293Z,34.86
2023-04-20T03:34:03.245Z,34.86
2023-04-20T03:35:03.272Z,34.83
2023-04-20T03:36:03.294Z,34.87
2023-04-20T03:37:03.371Z,34.90
2023-04-20T03:38:03.348Z,34.86
2023-04-20T03:39:03.385Z,34.87
2023-04-20T03:40:03.421Z,34.85
2023-04-20T03:41:03.423Z,34.89
2023-04-20T03:42:03.448Z,34.87
2023-04-20T03:43:03.495Z,34.89
2023-04-20T03:44:03.564Z,34.86
2023-04-20T03:45:03.573Z,34.87
2023-04-20T03:46:03.631Z,34.87
2023-04-20T03:47:03.611Z,34.83
2023-04-20T03:48:03.670Z,34.86
2023-04-20T03:49:03.693Z,34.87
2023-04-20T03:50:03.689Z,34.90
2023-04-20T03:51:03.702Z,34.86
2023-04-20T03:52:03.689Z,34.85
2023-04-20T03:53:03.718Z,34.86
2023-04-20T03:54:03.774Z,34.87
2023-04-20T03:55:03.765Z,34.83
2023-04-20T03:56:03.761Z,34.86
2023-04-20T03:57:03.798Z,34.81
2023-04-20T03:58:03.829Z,34.83
2023-04-20T03:59:03.885Z,34.80
2023-04-20T04:00:03.891Z,34.81
2023-04-20T04:01:03.919Z,34.77
2023-04-20T04:02:03.971Z,34.81
2023-04-20T04:03:04.125Z,34.82
2023-04-20T04:04:04.255Z,34.79
2023-04-20T04:05:04.109Z,34.77
2023-04-20T04:06:04.053Z,34.79
2023-04-20T04:07:04.062Z,34.77
2023-04-20T04:08:04.155Z,34.81
2023-04-20T04:09:04.173Z,34.74
2023-04-20T04:10:04.192Z,34.73
2023-04-20T04:11:04.189Z,34.77
2023-04-20T04:12:04.233Z,34.75
2023-04-20T04:13:04.371Z,34.77
2023-04-20T04:14:04.289Z,34.73
2023-04-20T04:15:04.341Z,34.74
2023-04-20T04:16:04.322Z,34.72
2023-04-20T04:17:04.381Z,34.66
2023-04-20T04:18:04.454Z,34.76
2023-04-20T04:19:04.427Z,34.72
2023-04-20T04:20:04.434Z,34.74
2023-04-20T04:21:04.485Z,34.75
2023-04-20T04:22:04.495Z,34.74
2023-04-20T04:23:04.541Z,34.75
2023-04-20T04:24:04.530Z,34.72
2023-04-20T04:25:04.584Z,34.76
2023-04-20T04:26:04.609Z,34.71
2023-04-20T04:27:04.670Z,34.71
2023-04-20T04:28:04.648Z,34.75
2023-04-20T04:29:04.696Z,34.72
2023-04-20T04:30:04.707Z,34.65
2023-04-20T04:31:04.791Z,34.67
2023-04-20T04:32:04.777Z,34.68
2023-04-20T04:33:05.113Z,34.70
2023-04-20T04:34:05.517Z,34.67
2023-04-20T04:35:04.865Z,34.71
2023-04-20T04:36:04.888Z,34.68
2023-04-20T04:37:04.936Z,34.67
2023-04-20T04:38:04.948Z,34.69
2023-04-20T04:39:04.964Z,34.67
2023-04-20T04:40:04.979Z,34.72
2023-04-20T04:41:05.012Z,34.66
2023-04-20T04:42:05.073Z,34.67
2023-04-20T04:43:05.104Z,34.67
2023-04-20T04:44:05.153Z,34.63
2023-04-20T04:45:05.208Z,34.66
2023-04-20T04:46:05.211Z,34.67
2023-04-20T04:47:05.206Z,34.65
2023-04-20T04:48:07.992Z,34.66
2023-04-20T04:49:05.230Z,34.65
2023-04-20T04:50:05.211Z,34.66
2023-04-20T04:51:05.192Z,34.63
2023-04-20T04:52:05.206Z,34.58
2023-04-20T04:53:05.239Z,34.63
2023-04-20T04:54:05.521Z,34.63
2023-04-20T04:55:05.163Z,34.58
2023-04-20T04:56:05.171Z,34.59
2023-04-20T04:57:05.131Z,34.61
2023-04-20T04:58:05.374Z,34.59
2023-04-20T04:59:05.130Z,34.59
2023-04-20T05:00:05.103Z,34.59
2023-04-20T05:01:05.112Z,34.54
2023-04-20T05:02:05.155Z,34.59
2023-04-20T05:03:05.146Z,34.59
2023-04-20T05:04:05.236Z,34.58
2023-04-20T05:05:05.434Z,34.57
2023-04-20T05:06:05.081Z,34.62
2023-04-20T05:07:05.066Z,34.61
2023-04-20T05:08:05.063Z,34.57
2023-04-20T05:09:05.069Z,34.57
2023-04-20T05:10:05.045Z,34.56
2023-04-20T05:11:05.106Z,34.49
2023-04-20T05:12:05.070Z,34.53
2023-04-20T05:13:05.059Z,34.53
2023-04-20T05:14:06.042Z,34.53
2023-04-20T05:15:05.018Z,34.53
2023-04-20T05:16:04.997Z,34.54
2023-04-20T05:17:04.985Z,34.49
2023-04-20T05:18:05.064Z,34.51
2023-04-20T05:19:04.998Z,34.51
2023-04-20T05:20:04.991Z,34.47
2023-04-20T05:21:04.990Z,34.52
2023-04-20T05:22:05.004Z,34.47
2023-04-20T05:23:04.959Z,34.48
2023-04-20T05:24:04.997Z,34.49
2023-04-20T05:25:04.939Z,34.48
2023-04-20T05:26:04.918Z,34.48
2023-04-20T05:27:04.944Z,34.44
2023-04-20T05:28:04.974Z,34.41
2023-04-20T05:29:04.905Z,34.23
2023-04-20T05:30:18.940Z,34.37
2023-04-20T05:31:06.003Z,34.41
2023-04-20T05:32:05.043Z,34.42
2023-04-20T05:33:04.943Z,34.33
2023-04-20T05:34:05.267Z,34.04
2023-04-20T05:35:04.949Z,32.21
2023-04-20T05:36:04.860Z,29.84
2023-04-20T05:37:04.920Z,28.85
2023-04-20T05:38:04.847Z,29.88
2023-04-20T05:39:04.824Z,31.00
2023-04-20T05:40:04.834Z,31.49
2023-04-20T05:41:04.840Z,31.85
2023-04-20T05:42:04.850Z,32.18
2023-04-20T05:43:04.800Z,32.46
2023-04-20T05:44:04.828Z,32.76
2023-04-20T05:45:04.928Z,32.89
2023-04-20T05:46:04.837Z,33.19
2023-04-20T05:47:04.815Z,33.42
2023-04-20T05:48:04.924Z,33.60
2023-04-20T05:49:05.043Z,33.65
2023-04-20T05:50:04.939Z,33.76
2023-04-20T05:51:04.848Z,33.81
2023-04-20T05:52:04.882Z,33.67
2023-04-20T05:53:04.869Z,33.87
2023-04-20T05:54:05.050Z,34.15
2023-04-20T05:55:04.895Z,34.12
2023-04-20T05:56:04.865Z,34.04
2023-04-20T05:57:04.854Z,33.97
2023-04-20T05:58:04.859Z,33.73
2023-04-20T05:59:04.907Z,33.71
2023-04-20T06:00:04.979Z,33.66
2023-04-20T06:01:04.924Z,33.80
2023-04-20T06:02:05.061Z,33.65
2023-04-20T06:03:05.209Z,33.68
2023-04-20T06:04:05.212Z,33.65
2023-04-20T06:05:05.171Z,33.51
2023-04-20T06:06:05.035Z,33.63
2023-04-20T06:07:05.040Z,33.67
2023-04-20T06:08:05.095Z,33.50
2023-04-20T06:09:05.243Z,33.52
2023-04-20T06:10:05.145Z,33.37
2023-04-20T06:11:05.234Z,33.57
2023-04-20T06:12:05.292Z,33.42
2023-04-20T06:13:05.278Z,33.54
2023-04-20T06:14:05.320Z,33.63
2023-04-20T06:15:05.441Z,33.44
2023-04-20T06:16:05.505Z,33.35
2023-04-20T06:17:05.519Z,33.14
2023-04-20T06:18:05.631Z,33.06
2023-04-20T06:19:05.646Z,33.31
2023-04-20T06:20:05.702Z,33.38
2023-04-20T06:21:05.753Z,33.34
2023-04-20T06:22:05.819Z,33.35
2023-04-20T06:23:05.921Z,33.67
2023-04-20T06:24:06.007Z,33.57
2023-04-20T06:25:06.020Z,33.40
2023-04-20T06:26:06.058Z,33.44
2023-04-20T06:27:06.149Z,33.50
2023-04-20T06:28:06.239Z,33.62
2023-04-20T06:29:06.252Z,33.79
2023-04-20T06:30:06.306Z,33.96
2023-04-20T06:31:06.492Z,33.98
2023-04-20T06:32:06.391Z,33.99
2023-04-20T06:33:06.545Z,34.53
2023-04-20T06:34:06.641Z,34.64
2023-04-20T06:35:06.534Z,34.70
2023-04-20T06:36:06.615Z,35.09
2023-04-20T06:37:06.693Z,35.07
2023-04-20T06:38:06.701Z,34.93
2023-04-20T06:39:06.733Z,34.86
2023-04-20T06:40:06.872Z,34.70
2023-04-20T06:41:06.860Z,34.70
2023-04-20T06:42:06.860Z,34.68
2023-04-20T06:43:06.928Z,34.63
2023-04-20T06:44:08.600Z,34.44
2023-04-20T06:45:07.669Z,34.28
2023-04-20T06:46:07.149Z,34.23
2023-04-20T06:47:08.186Z,34.22
2023-04-20T06:48:14.140Z,34.03
2023-04-20T06:49:08.562Z,33.93
2023-04-20T06:50:07.279Z,33.81
2023-04-20T06:51:07.210Z,33.72
2023-04-20T06:52:07.211Z,33.66
2023-04-20T06:53:07.223Z,33.52
2023-04-20T06:54:07.584Z,33.48
2023-04-20T06:55:07.195Z,33.35
2023-04-20T06:56:07.224Z,33.32
2023-04-20T06:57:07.280Z,33.27
2023-04-20T06:58:07.390Z,33.22
2023-04-20T06:59:07.596Z,33.15
2023-04-20T07:00:07.444Z,33.12
2023-04-20T07:01:08.151Z,33.09
2023-04-20T07:02:07.580Z,32.99
2023-04-20T07:03:07.624Z,32.99
2023-04-20T07:04:07.646Z,33.00
2023-04-20T07:05:08.057Z,32.94
2023-04-20T07:06:07.499Z,33.04
2023-04-20T07:07:07.505Z,32.97
2023-04-20T07:08:07.517Z,33.04
2023-04-20T07:09:07.555Z,33.08
2023-04-20T07:10:07.619Z,33.06
2023-04-20T07:11:07.662Z,33.13
2023-04-20T07:12:07.676Z,33.15
2023-04-20T07:13:07.653Z,33.17
2023-04-20T07:14:07.676Z,33.17
2023-04-20T07:15:07.670Z,33.15
2023-04-20T07:16:07.779Z,33.17
2023-04-20T07:17:07.692Z,33.19
2023-04-20T07:18:07.840Z,33.21
2023-04-20T07:19:07.826Z,33.19
2023-04-20T07:20:07.754Z,33.20
2023-04-20T07:21:07.765Z,33.28
2023-04-20T07:22:07.822Z,33.25
2023-04-20T07:23:07.800Z,33.22
2023-04-20T07:24:08.075Z,33.22
2023-04-20T07:25:07.834Z,33.28
2023-04-20T07:26:07.846Z,33.31
2023-04-20T07:27:07.861Z,33.31
2023-04-20T07:28:07.865Z,33.32
2023-04-20T07:29:07.919Z,33.31
2023-04-20T07:30:07.923Z,33.25
2023-04-20T07:31:07.927Z,33.33
2023-04-20T07:32:08.020Z,33.63
2023-04-20T07:33:07.968Z,33.72
2023-04-20T07:34:08.075Z,34.05
2023-04-20T07:35:08.013Z,34.36
2023-04-20T07:36:08.069Z,34.44
2023-04-20T07:37:08.148Z,34.44
2023-04-20T07:38:08.266Z,34.56
2023-04-20T07:39:08.242Z,34.73
2023-04-20T07:40:08.318Z,35.38
2023-04-20T07:41:08.320Z,36.07
2023-04-20T07:42:08.400Z,36.15
2023-04-20T07:43:08.550Z,36.73
2023-04-20T07:44:08.500Z,36.85
2023-04-20T07:45:08.522Z,37.12
2023-04-20T07:46:08.681Z,37.24
2023-04-20T07:47:08.601Z,37.14
2023-04-20T07:48:08.643Z,37.35
2023-04-20T07:49:09.088Z,37.74
2023-04-20T07:50:08.664Z,38.82
2023-04-20T07:51:08.693Z,38.11
2023-04-20T07:52:16.526Z,37.72
2023-04-20T07:53:09.735Z,37.75
2023-04-20T07:54:08.730Z,37.80
2023-04-20T07:55:08.706Z,37.68
2023-04-20T07:56:08.716Z,37.79
2023-04-20T07:57:08.682Z,37.82
2023-04-20T07:58:08.701Z,37.70
2023-04-20T07:59:09.129Z,38.25
2023-04-20T08:00:08.924Z,38.08
2023-04-20T08:01:08.709Z,37.69
2023-04-20T08:02:08.801Z,37.53
2023-04-20T08:03:08.978Z,37.43
2023-04-20T08:04:09.481Z,37.46
2023-04-20T08:05:11.803Z,37.52
2023-04-20T08:06:08.648Z,37.55
2023-04-20T08:07:08.732Z,37.46
2023-04-20T08:08:08.661Z,37.46
2023-04-20T08:09:08.669Z,37.57
2023-04-20T08:10:08.653Z,37.51
2023-04-20T08:11:08.603Z,37.50
2023-04-20T08:12:08.585Z,37.59
2023-04-20T08:13:08.623Z,37.56
2023-04-20T08:14:08.595Z,37.59
2023-04-20T08:15:08.662Z,37.49
2023-04-20T08:16:08.609Z,37.52
2023-04-20T08:17:08.599Z,37.46
2023-04-20T08:18:08.595Z,37.50
2023-04-20T08:19:08.562Z,37.57
2023-04-20T08:20:08.574Z,37.51
2023-04-20T08:21:08.604Z,37.47
2023-04-20T08:22:08.535Z,37.48
2023-04-20T08:23:08.507Z,37.48
2023-04-20T08:24:08.628Z,37.31
2023-04-20T08:25:08.557Z,37.22
2023-04-20T08:26:08.582Z,37.06
2023-04-20T08:27:08.490Z,37.14
2023-04-20T08:28:12.218Z,37.19
2023-04-20T08:29:10.100Z,37.17
2023-04-20T08:30:08.704Z,37.16
2023-04-20T08:31:08.735Z,37.17
2023-04-20T08:32:08.729Z,37.14
2023-04-20T08:33:08.854Z,37.08
2023-04-20T08:34:08.881Z,37.11
2023-04-20T08:35:08.885Z,37.11
2023-04-20T08:36:08.896Z,37.15
2023-04-20T08:37:08.912Z,37.10
2023-04-20T08:38:08.980Z,37.09
2023-04-20T08:39:09.067Z,37.05
2023-04-20T08:40:09.069Z,36.90
2023-04-20T08:41:09.140Z,36.98
2023-04-20T08:42:09.220Z,36.90
2023-04-20T08:43:09.234Z,36.59
2023-04-20T08:44:09.725Z,36.46
2023-04-20T08:45:09.314Z,36.35
2023-04-20T08:46:09.376Z,36.24
2023-04-20T08:47:09.410Z,36.25
2023-04-20T08:48:09.525Z,36.21
2023-04-20T08:49:09.659Z,36.29
2023-04-20T08:50:09.562Z,36.24
2023-04-20T08:51:09.691Z,36.21
2023-04-20T08:52:09.756Z,36.20
2023-04-20T08:53:12.590Z,36.21
2023-04-20T08:54:10.138Z,36.20
2023-04-20T08:55:09.707Z,36.22
2023-04-20T08:56:09.652Z,36.21
2023-04-20T08:57:09.654Z,36.15
2023-04-20T08:58:09.678Z,36.13
2023-04-20T08:59:09.680Z,36.15
2023-04-20T09:00:11.596Z,36.13
2023-04-20T09:01:09.686Z,36.15
2023-04-20T09:02:09.702Z,36.12
2023-04-20T09:03:09.784Z,36.17
2023-04-20T09:04:09.916Z,36.12
2023-04-20T09:05:09.658Z,36.05
2023-04-20T09:06:09.718Z,36.11
2023-04-20T09:07:09.623Z,36.09
2023-04-20T09:08:09.652Z,36.09
2023-04-20T09:09:09.615Z,36.06
2023-04-20T09:10:09.564Z,36.11
2023-04-20T09:11:09.569Z,36.07
2023-04-20T09:12:09.563Z,36.07
2023-04-20T09:13:09.584Z,36.07
2023-04-20T09:14:10.197Z,36.06
2023-04-20T09:15:09.585Z,36.05
2023-04-20T09:16:09.554Z,36.06
2023-04-20T09:17:09.573Z,36.04
2023-04-20T09:18:09.544Z,36.03
2023-04-20T09:19:10.430Z,36.01
2023-04-20T09:20:09.505Z,36.00
2023-04-20T09:21:09.491Z,35.97
2023-04-20T09:22:09.573Z,35.96
2023-04-20T09:23:09.504Z,35.99
2023-04-20T09:24:09.591Z,35.91
2023-04-20T09:25:09.612Z,35.96
2023-04-20T09:26:09.657Z,35.97
2023-04-20T09:27:09.718Z,35.96
2023-04-20T09:28:09.838Z,35.95
2023-04-20T09:29:09.881Z,35.97
2023-04-20T09:30:09.938Z,35.95
2023-04-20T09:31:09.964Z,35.91
2023-04-20T09:32:10.074Z,35.87
2023-04-20T09:33:10.111Z,35.75
2023-04-20T09:34:10.642Z,36.28
2023-04-20T09:35:10.219Z,36.07
2023-04-20T09:36:10.276Z,36.07
2023-04-20T09:37:10.324Z,36.02
2023-04-20T09:38:10.414Z,36.18
2023-04-20T09:39:11.141Z,36.25
2023-04-20T09:40:10.532Z,36.27
2023-04-20T09:41:10.558Z,36.50
2023-04-20T09:42:10.591Z,36.49
2023-04-20T09:43:10.634Z,36.65
2023-04-20T09:44:11.117Z,36.87
2023-04-20T09:45:10.739Z,37.04
2023-04-20T09:46:10.774Z,37.23
2023-04-20T09:47:10.772Z,37.31
2023-04-20T09:48:10.819Z,37.52
2023-04-20T09:49:11.119Z,38.02
2023-04-20T09:50:24.785Z,37.86
2023-04-20T09:51:11.844Z,37.74
2023-04-20T09:52:10.884Z,37.98
2023-04-20T09:53:10.839Z,38.38
2023-04-20T09:54:10.924Z,38.29
2023-04-20T09:55:10.930Z,38.57
2023-04-20T09:56:10.815Z,38.45
2023-04-20T09:57:10.816Z,38.75
2023-04-20T09:58:10.877Z,38.63
2023-04-20T09:59:10.833Z,38.69
2023-04-20T10:00:10.835Z,38.87
2023-04-20T10:01:10.821Z,38.72
2023-04-20T10:02:10.902Z,38.73
2023-04-20T10:03:11.026Z,39.79
2023-04-20T10:04:11.044Z,39.15
2023-04-20T10:05:10.736Z,38.46
2023-04-20T10:06:10.753Z,38.15
2023-04-20T10:07:10.756Z,37.31
2023-04-20T10:08:10.718Z,37.40
2023-04-20T10:09:10.719Z,37.44
2023-04-20T10:10:10.736Z,37.18
2023-04-20T10:11:10.796Z,36.65
2023-04-20T10:12:10.696Z,36.52
2023-04-20T10:13:10.682Z,36.36
2023-04-20T10:14:10.719Z,35.96
2023-04-20T10:15:10.746Z,35.60
2023-04-20T10:16:10.773Z,30.73
2023-04-20T10:17:10.814Z,30.17
2023-04-20T10:18:10.793Z,28.71
2023-04-20T10:19:10.668Z,28.28
2023-04-20T10:20:10.697Z,28.21
2023-04-20T10:21:10.654Z,28.26
2023-04-20T10:22:10.632Z,28.50
2023-04-20T10:23:10.663Z,28.19
2023-04-20T10:24:10.713Z,27.93
2023-04-20T10:25:10.819Z,28.38
2023-04-20T10:26:10.826Z,28.17
2023-04-20T10:27:10.891Z,28.53
2023-04-20T10:28:11.004Z,27.82
2023-04-20T10:29:11.012Z,28.36
2023-04-20T10:30:11.155Z,28.77
2023-04-20T10:31:11.153Z,29.63
2023-04-20T10:32:11.148Z,30.02
2023-04-20T10:33:11.482Z,30.22
2023-04-20T10:34:11.227Z,30.07
2023-04-20T10:35:11.686Z,30.38
2023-04-20T10:36:11.309Z,30.47
2023-04-20T10:37:11.336Z,30.56
2023-04-20T10:38:11.373Z,30.75
2023-04-20T10:39:11.366Z,30.91
2023-04-20T10:40:11.707Z,31.07
2023-04-20T10:41:11.456Z,31.27
2023-04-20T10:42:11.458Z,31.56
2023-04-20T10:43:11.420Z,31.65
2023-04-20T10:44:11.482Z,31.61
2023-04-20T10:45:11.693Z,31.70
2023-04-20T10:46:11.512Z,31.67
2023-04-20T10:47:11.476Z,31.69
2023-04-20T10:48:13.124Z,31.70
2023-04-20T10:49:11.423Z,31.77
2023-04-20T10:50:11.486Z,31.72
2023-04-20T10:51:11.632Z,31.76
2023-04-20T10:52:11.585Z,31.77
2023-04-20T10:53:11.485Z,31.76
2023-04-20T10:54:11.583Z,31.85
2023-04-20T10:55:11.529Z,31.83
2023-04-20T10:56:11.587Z,31.89
2023-04-20T10:57:11.608Z,31.90
2023-04-20T10:58:11.629Z,31.93
2023-04-20T10:59:12.179Z,31.90
2023-04-20T11:00:11.702Z,32.00
2023-04-20T11:01:11.664Z,32.03
2023-04-20T11:02:11.858Z,32.01
2023-04-20T11:03:11.778Z,32.07
2023-04-20T11:04:11.783Z,32.11
2023-04-20T11:05:11.918Z,32.08
2023-04-20T11:06:11.780Z,32.12
2023-04-20T11:07:11.813Z,32.11
2023-04-20T11:08:12.659Z,32.22
2023-04-20T11:09:11.833Z,32.18
2023-04-20T11:10:11.868Z,32.23
2023-04-20T11:11:11.966Z,32.22
2023-04-20T11:12:11.961Z,32.32
2023-04-20T11:13:11.971Z,32.29
2023-04-20T11:14:12.041Z,32.41
2023-04-20T11:15:12.052Z,32.67
2023-04-20T11:16:12.050Z,32.68
2023-04-20T11:17:12.170Z,33.20
2023-04-20T11:18:12.198Z,32.90
2023-04-20T11:19:12.168Z,32.90
2023-04-20T11:20:12.157Z,32.80
2023-04-20T11:21:12.227Z,32.86
2023-04-20T11:22:12.336Z,32.84
2023-04-20T11:23:12.194Z,32.86
2023-04-20T11:24:12.219Z,32.85
2023-04-20T11:25:12.242Z,32.86
2023-04-20T11:26:12.231Z,32.84
2023-04-20T11:27:12.253Z,32.80
2023-04-20T11:28:12.236Z,32.87
2023-04-20T11:29:12.317Z,32.86
2023-04-20T11:30:12.296Z,32.87
2023-04-20T11:31:12.327Z,32.92
2023-04-20T11:32:12.407Z,32.86
2023-04-20T11:33:12.493Z,32.87
2023-04-20T11:34:12.347Z,32.92
2023-04-20T11:35:12.325Z,32.92
2023-04-20T11:36:12.339Z,32.89
2023-04-20T11:37:12.354Z,32.93
2023-04-20T11:38:12.370Z,32.93
2023-04-20T11:39:12.392Z,32.95
2023-04-20T11:40:12.669Z,32.96
2023-04-20T11:41:12.430Z,32.96
2023-04-20T11:42:12.518Z,32.99
2023-04-20T11:43:12.522Z,33.03
2023-04-20T11:44:12.535Z,33.00
2023-04-20T11:45:12.663Z,33.00
2023-04-20T11:46:12.670Z,33.04
2023-04-20T11:47:12.632Z,33.03
2023-04-20T11:48:12.650Z,33.06
2023-04-20T11:49:12.707Z,33.03
2023-04-20T11:50:13.196Z,33.06
2023-04-20T11:51:12.781Z,33.00
2023-04-20T11:52:12.747Z,32.99
2023-04-20T11:53:12.783Z,33.04
2023-04-20T11:54:12.872Z,33.01
2023-04-20T11:55:13.204Z,32.99
2023-04-20T11:56:12.801Z,33.00
2023-04-20T11:57:12.833Z,33.02
2023-04-20T11:58:13.681Z,33.03
2023-04-20T11:59:12.864Z,33.04
2023-04-20T12:00:13.167Z,33.07
2023-04-20T12:01:12.871Z,33.03
2023-04-20T12:02:12.992Z,33.06
2023-04-20T12:03:13.090Z,33.10
2023-04-20T12:04:13.072Z,33.04
2023-04-20T12:05:13.305Z,33.07
2023-04-20T12:06:12.998Z,33.07
2023-04-20T12:07:12.989Z,33.09
2023-04-20T12:08:13.061Z,33.02
2023-04-20T12:09:13.043Z,33.05
2023-04-20T12:10:13.117Z,33.08
2023-04-20T12:11:13.078Z,32.99
2023-04-20T12:12:13.067Z,32.99
2023-04-20T12:13:13.091Z,33.04
2023-04-20T12:14:13.144Z,32.98
2023-04-20T12:15:13.185Z,33.05
2023-04-20T12:16:13.332Z,33.02
2023-04-20T12:17:13.201Z,33.02
2023-04-20T12:18:13.286Z,33.06
2023-04-20T12:19:13.312Z,33.06
2023-04-20T12:20:13.433Z,33.00
2023-04-20T12:21:13.379Z,33.06
2023-04-20T12:22:13.458Z,33.13
2023-04-20T12:23:13.479Z,33.13
2023-04-20T12:24:13.545Z,33.11
2023-04-20T12:25:13.559Z,33.09
2023-04-20T12:26:13.624Z,33.20
2023-04-20T12:27:13.692Z,33.18
2023-04-20T12:28:13.697Z,33.17
2023-04-20T12:29:13.769Z,33.20
2023-04-20T12:30:13.834Z,33.15
2023-04-20T12:31:13.894Z,33.16
2023-04-20T12:32:13.942Z,33.14
2023-04-20T12:33:14.146Z,33.16
2023-04-20T12:34:14.019Z,33.24
2023-04-20T12:35:14.096Z,33.24
2023-04-20T12:36:14.129Z,33.23
2023-04-20T12:37:14.200Z,33.22
2023-04-20T12:38:14.722Z,33.23
2023-04-20T12:39:14.256Z,33.22
2023-04-20T12:40:14.307Z,33.23
2023-04-20T12:41:14.303Z,33.32
2023-04-20T12:42:14.342Z,33.22
2023-04-20T12:43:14.400Z,33.24
2023-04-20T12:44:14.417Z,33.30
2023-04-20T12:45:14.449Z,33.29
2023-04-20T12:46:14.524Z,33.32
2023-04-20T12:47:14.532Z,33.33
2023-04-20T12:48:14.639Z,33.36
2023-04-20T12:49:14.641Z,33.35
2023-04-20T12:50:14.660Z,33.33
2023-04-20T12:51:14.714Z,33.33
2023-04-20T12:52:14.759Z,33.37
2023-04-20T12:53:14.810Z,33.45